Time;durP1;ratioP1;P1;durP2;ratioP2;P2;SDS_P1;SDS_P2;PMS_P1;PMS_P2;Temp;Humidity;BMP_temperature;BMP_pressure;BME280_temperature;BME280_humidity;BME280_pressure;Samples;Min_cycle;Max_cycle;Signal;HPM_P1;HPM_P2
2022/04/22 00:00:47;;;;;;;12.50;6.20;;;6.70;99.90;;;;;;5019576;28;20242;-77
2022/04/22 00:03:15;;;;;;;7.18;6.30;;;6.70;99.90;;;;;;5020937;28;20226;-77
2022/04/22 00:05:44;;;;;;;10.70;5.97;;;6.70;99.90;;;;;;5009221;28;20200;-78
2022/04/22 00:08:12;;;;;;;8.88;5.63;;;6.70;99.90;;;;;;5004822;28;20772;-77
2022/04/22 00:11:29;;;;;;;7.28;5.65;;;6.70;99.90;;;;;;5002717;28;20200;-77
2022/04/22 00:13:29;;;;;;;6.43;5.22;;;6.60;99.90;;;;;;5001476;27;20203;-78
2022/04/22 00:15:58;;;;;;;5.75;4.93;;;6.60;99.90;;;;;;5001100;28;20233;-77
2022/04/22 00:18:26;;;;;;;6.90;5.72;;;6.50;99.90;;;;;;5003584;28;20501;-78
2022/04/22 00:20:54;;;;;;;5.97;5.25;;;6.60;99.90;;;;;;5001572;28;20326;-77
2022/04/22 00:23:22;;;;;;;6.95;5.15;;;6.60;99.90;;;;;;5001195;28;20207;-76
2022/04/22 00:25:50;;;;;;;9.77;5.03;;;6.60;99.90;;;;;;5001148;28;20249;-77
2022/04/22 00:28:17;;;;;;;11.55;5.70;;;6.60;99.90;;;;;;5001798;28;20213;-77
2022/04/22 00:30:46;;;;;;;6.18;5.43;;;6.60;99.90;;;;;;5010946;28;20292;-77
2022/04/22 00:33:15;;;;;;;6.57;4.53;;;6.60;99.90;;;;;;5019559;28;20210;-77
2022/04/22 00:35:43;;;;;;;6.35;4.80;;;6.60;99.90;;;;;;5000240;28;20286;-78
2022/04/22 00:38:12;;;;;;;6.30;4.75;;;6.50;99.90;;;;;;5000098;28;20681;-77
2022/04/22 00:40:40;;;;;;;7.47;4.60;;;6.50;99.90;;;;;;5003862;28;20191;-76
2022/04/22 00:43:18;;;;;;;7.03;4.88;;;6.50;99.90;;;;;;5003187;28;20370;-77
2022/04/22 00:45:46;;;;;;;8.75;6.28;;;6.50;99.90;;;;;;5001475;28;20506;-76
2022/04/22 00:48:16;;;;;;;15.20;6.07;;;6.50;99.90;;;;;;4999575;28;20775;-74
2022/04/22 00:50:45;;;;;;;11.55;5.32;;;6.50;99.90;;;;;;4999447;28;20571;-73
2022/04/22 00:53:14;;;;;;;9.07;4.60;;;6.40;99.90;;;;;;4999228;28;20260;-73
2022/04/22 00:55:45;;;;;;;7.97;4.70;;;6.40;99.90;;;;;;4998448;28;20227;-73
2022/04/22 00:58:13;;;;;;;8.32;6.07;;;6.40;99.90;;;;;;4996802;28;20202;-74
2022/04/22 01:00:41;;;;;;;6.32;5.65;;;6.40;99.90;;;;;;5001023;28;20302;-77
2022/04/22 01:03:09;;;;;;;6.97;4.68;;;6.40;99.90;;;;;;5002563;28;20282;-78
2022/04/22 01:11:11;;;;;;;7.32;5.72;;;6.30;99.90;;;;;;5000411;28;20445;-77
2022/04/22 01:13:39;;;;;;;6.97;5.93;;;6.30;99.90;;;;;;5001890;28;20199;-76
2022/04/22 01:16:07;;;;;;;7.38;6.07;;;6.20;99.90;;;;;;4999990;28;20696;-78
2022/04/22 01:18:37;;;;;;;7.95;5.60;;;6.20;99.90;;;;;;5000512;28;20290;-78
2022/04/22 01:21:06;;;;;;;13.07;6.13;;;6.20;99.90;;;;;;5003749;27;20223;-77
2022/04/22 01:23:35;;;;;;;14.48;7.63;;;6.20;99.90;;;;;;5000227;28;20527;-70
2022/04/22 01:26:03;;;;;;;11.10;6.25;;;6.20;99.90;;;;;;4997959;28;20231;-72
2022/04/22 01:28:31;;;;;;;12.68;6.78;;;6.10;99.90;;;;;;4998566;28;20674;-76
2022/04/22 01:31:00;;;;;;;12.55;5.97;;;6.20;99.90;;;;;;4997529;28;20346;-77
2022/04/22 01:33:28;;;;;;;9.52;6.68;;;6.20;99.90;;;;;;4998560;28;20819;-78
2022/04/22 01:35:56;;;;;;;6.68;4.90;;;6.20;99.90;;;;;;4997693;28;20384;-77
2022/04/22 01:38:25;;;;;;;11.90;7.25;;;6.20;99.90;;;;;;4997198;27;20294;-77
2022/04/22 01:40:54;;;;;;;10.73;6.65;;;6.10;99.90;;;;;;4997081;28;20223;-76
2022/04/22 01:43:23;;;;;;;18.77;6.30;;;6.10;99.90;;;;;;4998255;28;20741;-75
2022/04/22 01:45:52;;;;;;;12.43;7.20;;;6.10;99.90;;;;;;4997008;28;20805;-76
2022/04/22 01:48:21;;;;;;;10.27;6.10;;;6.10;99.90;;;;;;4997710;28;20213;-75
2022/04/22 01:50:49;;;;;;;10.18;5.78;;;6.10;99.90;;;;;;4997850;28;20254;-75
2022/04/22 01:53:17;;;;;;;8.00;6.15;;;6.00;99.90;;;;;;4998533;28;20233;-75
2022/04/22 01:55:47;;;;;;;9.05;6.45;;;6.00;99.90;;;;;;4998607;28;20624;-77
2022/04/22 01:58:15;;;;;;;9.93;6.30;;;6.00;99.90;;;;;;4997105;28;20199;-76
2022/04/22 02:00:42;;;;;;;8.80;5.30;;;6.00;99.90;;;;;;4996693;28;20262;-76
2022/04/22 02:03:10;;;;;;;9.07;5.70;;;6.00;99.90;;;;;;4997127;28;20226;-76
2022/04/22 02:05:40;;;;;;;10.60;6.47;;;5.90;99.90;;;;;;4999140;28;20208;-76
2022/04/22 02:08:09;;;;;;;6.93;5.80;;;5.90;99.90;;;;;;4999972;28;20335;-76
2022/04/22 02:10:37;;;;;;;9.52;6.43;;;6.00;99.90;;;;;;4999989;28;20203;-77
2022/04/22 02:13:07;;;;;;;11.02;6.35;;;6.00;99.90;;;;;;5000142;28;20204;-77
2022/04/22 02:15:35;;;;;;;12.75;6.45;;;6.00;99.90;;;;;;5000053;28;20464;-77
2022/04/22 02:18:03;;;;;;;11.15;5.72;;;6.00;99.90;;;;;;5000671;28;20214;-76
2022/04/22 02:20:31;;;;;;;8.38;5.65;;;6.00;99.90;;;;;;5001463;28;20473;-76
2022/04/22 02:22:59;;;;;;;12.38;5.63;;;6.00;99.90;;;;;;5009386;28;20199;-75
2022/04/22 02:25:26;;;;;;;9.43;6.05;;;6.00;99.90;;;;;;5004463;28;20238;-75
2022/04/22 02:30:41;;;;;;;9.40;5.40;;;6.00;99.90;;;;;;5000505;28;20195;-75
2022/04/22 02:33:09;;;;;;;13.55;4.95;;;6.00;99.90;;;;;;5000909;28;20302;-75
2022/04/22 02:35:37;;;;;;;16.33;6.63;;;6.00;99.90;;;;;;5000545;28;20237;-76
2022/04/22 02:38:05;;;;;;;7.43;4.60;;;6.00;99.90;;;;;;5000364;28;20209;-76
2022/04/22 02:46:06;;;;;;;11.52;4.63;;;6.00;99.90;;;;;;5002106;28;20203;-74
2022/04/22 02:48:34;;;;;;;6.85;4.90;;;6.00;99.90;;;;;;5007758;28;20235;-71
2022/04/22 02:51:02;;;;;;;7.25;5.20;;;5.90;99.90;;;;;;5006386;28;20640;-73
2022/04/22 02:53:30;;;;;;;9.75;4.53;;;5.90;99.90;;;;;;5010643;28;20278;-72
2022/04/22 02:55:59;;;;;;;8.48;5.32;;;5.90;99.90;;;;;;5017609;28;20233;-71
2022/04/22 02:58:27;;;;;;;10.23;6.18;;;5.90;99.90;;;;;;5018177;28;20284;-71
2022/04/22 03:00:55;;;;;;;7.20;5.10;;;5.90;99.90;;;;;;5000809;28;20223;-72
2022/04/22 03:03:24;;;;;;;9.70;5.10;;;5.90;99.90;;;;;;4999503;28;20695;-71
2022/04/22 03:05:52;;;;;;;6.80;4.65;;;5.90;99.90;;;;;;4999628;28;20658;-72
2022/04/22 03:08:20;;;;;;;6.45;4.90;;;5.90;99.90;;;;;;5000586;28;20207;-72
2022/04/22 03:10:48;;;;;;;13.77;5.00;;;5.90;99.90;;;;;;4999816;28;20319;-73
2022/04/22 03:13:16;;;;;;;8.82;4.68;;;5.80;99.90;;;;;;4999300;28;20213;-74
2022/04/22 03:15:44;;;;;;;7.78;5.07;;;5.80;99.90;;;;;;4999229;28;20325;-74
2022/04/22 03:18:12;;;;;;;11.07;5.00;;;5.80;99.90;;;;;;4999541;28;20774;-74
2022/04/22 03:20:41;;;;;;;10.73;5.90;;;5.80;99.90;;;;;;4998180;27;20217;-75
2022/04/22 03:23:09;;;;;;;9.98;5.03;;;5.80;99.90;;;;;;5000262;28;20314;-74
2022/04/22 03:25:37;;;;;;;7.00;4.40;;;5.80;99.90;;;;;;4999536;28;20670;-75
2022/04/22 03:28:06;;;;;;;8.23;4.63;;;5.80;99.90;;;;;;4999150;28;20433;-74
2022/04/22 03:30:34;;;;;;;8.77;4.80;;;5.80;99.90;;;;;;4999008;28;20248;-72
2022/04/22 03:33:02;;;;;;;7.28;4.75;;;5.80;99.90;;;;;;4999485;28;20246;-74
2022/04/22 03:35:30;;;;;;;8.65;5.00;;;5.80;99.90;;;;;;4998837;28;20707;-74
2022/04/22 03:37:59;;;;;;;6.47;4.93;;;5.80;99.90;;;;;;4998513;28;20242;-73
2022/04/22 03:40:27;;;;;;;6.50;4.53;;;5.80;99.90;;;;;;4998635;28;20382;-75
2022/04/22 03:42:55;;;;;;;7.40;4.20;;;5.70;99.90;;;;;;4998729;28;20207;-73
2022/04/22 03:45:23;;;;;;;9.25;5.60;;;5.70;99.90;;;;;;4998607;28;20777;-73
2022/04/22 03:47:51;;;;;;;12.20;5.40;;;5.70;99.90;;;;;;4999462;28;20238;-73
2022/04/22 03:50:19;;;;;;;7.82;5.80;;;5.70;99.90;;;;;;5000146;28;20226;-74
2022/04/22 03:52:47;;;;;;;9.73;6.15;;;5.70;99.90;;;;;;4998794;28;20227;-74
2022/04/22 03:55:16;;;;;;;9.55;4.85;;;5.70;99.90;;;;;;5000938;27;20801;-75
2022/04/22 04:00:29;;;;;;;11.73;6.05;;;5.70;99.90;;;;;;4999171;28;20647;-74
2022/04/22 04:02:57;;;;;;;12.75;5.03;;;5.70;99.90;;;;;;4998819;28;20666;-76
2022/04/22 04:05:25;;;;;;;8.15;5.25;;;5.70;99.90;;;;;;5000515;28;20324;-75
2022/04/22 04:07:53;;;;;;;9.43;5.95;;;5.70;99.90;;;;;;5002519;28;20674;-75
2022/04/22 04:15:59;;;;;;;6.95;5.93;;;5.70;99.90;;;;;;4998550;28;20199;-76
2022/04/22 04:18:28;;;;;;;8.27;6.35;;;5.70;99.90;;;;;;4998987;28;20678;-75
2022/04/22 04:23:42;;;;;;;6.65;6.05;;;5.70;99.90;;;;;;4999450;28;20206;-74
2022/04/22 04:26:12;;;;;;;17.08;6.43;;;5.70;99.90;;;;;;4999406;28;20285;-74
2022/04/22 04:28:40;;;;;;;10.07;5.45;;;5.70;99.90;;;;;;5000612;28;20494;-74
2022/04/22 04:31:08;;;;;;;9.93;6.45;;;5.80;99.90;;;;;;5001018;28;20788;-73
2022/04/22 04:33:37;;;;;;;11.07;6.85;;;5.80;99.90;;;;;;4997999;28;20570;-75
2022/04/22 04:36:06;;;;;;;8.55;7.32;;;5.80;99.90;;;;;;4998037;28;20207;-74
2022/04/22 04:38:34;;;;;;;8.68;7.13;;;5.90;99.90;;;;;;4997528;27;20516;-72
2022/04/22 04:41:02;;;;;;;6.85;6.20;;;5.90;99.90;;;;;;5001004;28;20279;-71
2022/04/22 04:43:32;;;;;;;9.95;7.55;;;6.00;99.90;;;;;;5009116;28;20339;-73
2022/04/22 04:46:00;;;;;;;12.45;6.78;;;6.00;99.90;;;;;;5001769;28;20558;-73
2022/04/22 04:48:28;;;;;;;13.30;7.55;;;6.00;99.90;;;;;;5000143;28;20989;-71
2022/04/22 04:50:56;;;;;;;15.27;7.57;;;6.00;99.90;;;;;;5004008;28;20366;-71
2022/04/22 04:53:24;;;;;;;17.98;6.90;;;6.00;99.90;;;;;;5006338;27;20522;-72
2022/04/22 04:55:53;;;;;;;10.93;6.78;;;6.10;99.90;;;;;;5008472;28;20337;-70
2022/04/22 04:58:21;;;;;;;9.30;7.40;;;6.10;99.90;;;;;;5006215;27;20230;-73
2022/04/22 05:00:54;;;;;;;12.65;7.43;;;6.10;99.90;;;;;;5007368;28;20234;-72
2022/04/22 05:03:22;;;;;;;14.73;6.43;;;6.20;99.90;;;;;;5008092;28;20260;-72
2022/04/22 05:05:49;;;;;;;11.88;6.82;;;6.20;99.90;;;;;;5020644;28;20232;-72
2022/04/22 05:08:17;;;;;;;13.65;7.03;;;6.30;99.90;;;;;;5024340;27;20433;-73
2022/04/22 05:10:45;;;;;;;10.95;6.50;;;6.40;99.90;;;;;;5015127;28;20592;-72
2022/04/22 05:13:13;;;;;;;13.90;7.60;;;6.40;99.90;;;;;;4997309;28;20519;-72
2022/04/22 05:15:43;;;;;;;9.52;5.75;;;6.40;99.90;;;;;;4999400;28;20670;-72
2022/04/22 05:18:12;;;;;;;7.47;6.53;;;6.40;99.90;;;;;;5011125;27;20294;-70
2022/04/22 05:20:41;;;;;;;9.00;6.75;;;6.50;99.90;;;;;;5001770;28;20654;-71
2022/04/22 05:23:09;;;;;;;9.65;5.85;;;6.60;99.90;;;;;;4996242;28;20611;-72
2022/04/22 05:25:37;;;;;;;8.35;5.60;;;6.60;99.90;;;;;;4996704;28;20227;-69
2022/04/22 05:28:06;;;;;;;10.48;6.35;;;6.70;99.90;;;;;;4992001;27;20239;-73
2022/04/22 05:33:21;;;;;;;8.15;5.70;;;6.80;99.90;;;;;;4992850;28;20256;-75
2022/04/22 05:35:49;;;;;;;11.90;6.50;;;6.80;99.90;;;;;;4995764;28;20230;-71
2022/04/22 05:38:17;;;;;;;7.20;5.93;;;6.90;99.90;;;;;;4997546;27;20395;-70
2022/04/22 05:40:48;;;;;;;11.93;6.53;;;6.90;99.90;;;;;;4988487;28;20195;-73
2022/04/22 05:43:16;;;;;;;8.32;5.55;;;7.00;99.90;;;;;;4994657;28;20330;-71
2022/04/22 05:45:47;;;;;;;7.60;5.10;;;7.00;99.90;;;;;;4991125;28;20687;-71
2022/04/22 05:48:15;;;;;;;12.98;5.07;;;7.00;99.90;;;;;;4999802;27;20211;-73
2022/04/22 05:50:44;;;;;;;9.65;5.22;;;7.10;99.90;;;;;;5001883;28;20207;-72
2022/04/22 05:53:12;;;;;;;8.15;4.97;;;7.10;99.90;;;;;;5005585;28;20210;-73
2022/04/22 05:55:40;;;;;;;5.65;5.00;;;7.30;99.90;;;;;;4997282;28;20444;-71
2022/04/22 05:58:08;;;;;;;7.75;4.63;;;7.30;99.90;;;;;;5000626;28;20251;-71
2022/04/22 06:00:36;;;;;;;7.95;5.38;;;7.40;99.90;;;;;;5004881;28;20564;-71
2022/04/22 06:03:05;;;;;;;15.15;6.13;;;7.40;99.90;;;;;;4992110;28;20269;-70
2022/04/22 06:05:33;;;;;;;8.50;4.95;;;7.50;99.90;;;;;;4995611;27;20199;-70
2022/04/22 06:10:55;;;;;;;9.35;4.70;;;7.60;99.90;;;;;;4998344;27;20227;-75
2022/04/22 06:13:23;;;;;;;8.65;5.30;;;7.70;99.90;;;;;;4997362;28;20203;-73
2022/04/22 06:15:54;;;;;;;7.32;4.25;;;7.80;99.90;;;;;;5010742;28;20214;-72
2022/04/22 06:18:23;;;;;;;14.25;5.90;;;7.80;99.90;;;;;;5018202;28;20227;-73
2022/04/22 06:20:51;;;;;;;5.10;4.35;;;7.80;99.90;;;;;;4981541;28;20785;-72
2022/04/22 06:23:20;;;;;;;8.43;4.78;;;7.90;99.90;;;;;;4997464;27;20218;-73
2022/04/22 06:25:48;;;;;;;8.40;5.03;;;7.90;99.90;;;;;;5017767;28;20428;-72
2022/04/22 06:28:16;;;;;;;6.85;4.10;;;8.00;99.90;;;;;;4999930;28;20324;-72
2022/04/22 06:30:46;;;;;;;9.45;4.20;;;8.10;99.90;;;;;;4998209;28;20306;-71
2022/04/22 06:33:16;;;;;;;5.70;3.90;;;8.30;99.90;;;;;;5008931;27;20251;-71
2022/04/22 06:35:45;;;;;;;10.45;4.43;;;8.30;99.90;;;;;;5005069;28;20199;-76
2022/04/22 06:38:16;;;;;;;7.05;4.35;;;8.30;99.90;;;;;;5003505;28;20256;-77
2022/04/22 06:46:19;;;;;;;3.45;3.15;;;8.50;99.90;;;;;;5018427;28;20473;-75
2022/04/22 06:48:47;;;;;;;5.60;4.43;;;8.50;99.90;;;;;;5015849;28;20250;-77
2022/04/22 06:51:17;;;;;;;8.05;3.83;;;8.60;99.90;;;;;;5003252;28;20223;-76
2022/04/22 06:53:47;;;;;;;4.13;3.72;;;8.60;99.90;;;;;;5001068;28;20716;-75
2022/04/22 06:56:22;;;;;;;9.80;4.32;;;8.80;99.90;;;;;;5006041;27;20581;-75
2022/04/22 06:58:53;;;;;;;12.75;4.38;;;8.90;99.90;;;;;;5011994;28;20229;-75
2022/04/22 07:01:22;;;;;;;8.05;4.13;;;9.00;99.90;;;;;;5007204;28;20247;-74
2022/04/22 07:04:10;;;;;;;6.45;3.95;;;9.00;99.90;;;;;;5030362;28;20210;-76
2022/04/22 07:06:41;;;;;;;5.93;3.47;;;9.00;99.90;;;;;;5007299;28;20211;-77
2022/04/22 07:09:11;;;;;;;4.10;3.70;;;9.10;99.90;;;;;;5005980;28;20230;-75
2022/04/22 07:11:42;;;;;;;5.25;3.22;;;9.10;99.90;;;;;;5015692;28;20230;-75
2022/04/22 07:14:10;;;;;;;6.25;3.60;;;9.20;99.90;;;;;;4998902;28;20324;-76
2022/04/22 07:16:45;;;;;;;7.60;3.60;;;9.30;99.90;;;;;;5013540;28;20693;-77
2022/04/22 07:19:14;;;;;;;7.90;3.67;;;9.40;99.90;;;;;;5016986;28;20277;-77
2022/04/22 07:21:42;;;;;;;8.13;4.03;;;9.40;99.90;;;;;;5031144;28;20739;-75
2022/04/22 07:24:11;;;;;;;5.57;3.92;;;9.50;99.90;;;;;;5016070;27;20370;-78
2022/04/22 07:26:44;;;;;;;3.15;2.85;;;9.60;99.90;;;;;;5031917;28;20291;-78
2022/04/22 07:29:14;;;;;;;5.18;2.97;;;9.70;99.90;;;;;;5044188;28;20277;-77
2022/04/22 07:31:42;;;;;;;9.50;3.88;;;9.90;99.90;;;;;;5020146;28;20240;-74
2022/04/22 07:34:10;;;;;;;7.50;3.72;;;10.00;99.90;;;;;;5029716;28;20302;-77
2022/04/22 07:36:39;;;;;;;6.00;3.70;;;10.10;99.90;;;;;;5103099;28;20246;-77
2022/04/22 07:39:07;;;;;;;5.80;3.38;;;10.10;99.90;;;;;;5101584;27;20484;-75
2022/04/22 07:41:39;;;;;;;5.75;3.05;;;10.10;99.90;;;;;;5020397;28;20254;-77
2022/04/22 07:47:02;;;;;;;8.27;3.72;;;10.10;99.90;;;;;;4998766;28;20199;-74
2022/04/22 07:49:32;;;;;;;4.00;3.03;;;10.30;99.90;;;;;;4999518;28;20226;-75
2022/04/22 07:52:00;;;;;;;9.90;4.25;;;10.30;99.90;;;;;;4998229;28;20318;-75
2022/04/22 07:54:28;;;;;;;3.63;2.70;;;10.30;99.90;;;;;;4998386;28;20213;-74
2022/04/22 07:56:56;;;;;;;9.23;4.40;;;10.30;99.90;;;;;;4998886;28;20264;-74
2022/04/22 07:59:28;;;;;;;4.15;3.53;;;10.40;99.90;;;;;;4998039;28;20234;-74
2022/04/22 08:01:58;;;;;;;6.38;3.50;;;10.40;99.90;;;;;;5018915;28;20237;-74
2022/04/22 08:04:27;;;;;;;4.30;3.47;;;10.40;99.90;;;;;;5019609;28;20298;-75
2022/04/22 08:06:56;;;;;;;4.83;4.10;;;10.50;99.90;;;;;;5019314;28;20536;-76
2022/04/22 08:09:45;;;;;;;6.90;3.43;;;10.60;99.90;;;;;;5020119;28;20446;-74
2022/04/22 08:12:14;;;;;;;4.43;3.47;;;10.80;99.90;;;;;;5022830;28;20473;-75
2022/04/22 08:14:44;;;;;;;4.83;3.77;;;10.80;99.90;;;;;;5019197;28;20437;-74
2022/04/22 08:17:12;;;;;;;7.85;4.07;;;10.90;99.90;;;;;;5019687;28;20473;-73
2022/04/22 08:19:43;;;;;;;7.90;3.80;;;11.00;99.90;;;;;;5018772;28;20339;-74
2022/04/22 08:22:11;;;;;;;6.70;3.10;;;10.90;99.90;;;;;;5020057;28;20518;-75
2022/04/22 08:24:39;;;;;;;8.10;3.40;;;11.00;99.90;;;;;;5019744;28;20476;-76
2022/04/22 08:27:08;;;;;;;5.23;3.20;;;11.00;99.90;;;;;;5019943;28;20453;-74
2022/04/22 08:29:36;;;;;;;4.30;3.50;;;11.00;99.90;;;;;;5018019;28;20461;-73
2022/04/22 08:32:06;;;;;;;4.87;3.60;;;11.10;99.90;;;;;;5020093;28;20469;-74
2022/04/22 08:34:34;;;;;;;4.23;3.87;;;11.20;99.90;;;;;;5051839;28;20438;-74
2022/04/22 08:37:02;;;;;;;4.50;4.00;;;11.20;99.90;;;;;;5101793;28;20951;-76
2022/04/22 08:39:30;;;;;;;6.68;3.72;;;11.20;99.90;;;;;;5101223;28;20482;-74
2022/04/22 08:42:02;;;;;;;8.23;4.23;;;11.30;99.90;;;;;;5101945;27;20224;-76
2022/04/22 08:44:50;;;;;;;7.10;3.80;;;11.40;99.90;;;;;;5104612;27;20438;-76
2022/04/22 08:50:12;;;;;;;7.57;3.60;;;11.50;99.90;;;;;;5103762;28;20753;-78
2022/04/22 08:52:42;;;;;;;9.33;3.80;;;11.60;99.90;;;;;;5103928;28;21041;-78
2022/04/22 08:55:12;;;;;;;9.43;4.07;;;11.70;99.90;;;;;;5102191;28;20437;-79
2022/04/22 08:57:42;;;;;;;7.37;4.10;;;11.80;99.90;;;;;;5101571;28;20437;-78
2022/04/22 09:00:10;;;;;;;5.00;4.50;;;11.90;99.90;;;;;;5102017;28;20509;-77
2022/04/22 09:02:39;;;;;;;5.80;3.70;;;11.90;99.90;;;;;;5103877;27;20541;-77
2022/04/22 09:05:09;;;;;;;6.93;3.33;;;12.00;99.90;;;;;;5102328;28;20971;-76
2022/04/22 09:07:42;;;;;;;6.40;3.37;;;12.10;99.90;;;;;;5101220;28;20939;-78
2022/04/22 09:10:11;;;;;;;5.20;4.07;;;12.10;99.90;;;;;;5103879;27;21175;-78
2022/04/22 09:12:41;;;;;;;8.83;4.43;;;12.30;99.90;;;;;;5102604;28;20540;-78
2022/04/22 09:15:11;;;;;;;5.33;3.70;;;12.30;99.90;;;;;;5103112;28;21159;-78
2022/04/22 09:17:42;;;;;;;6.30;4.10;;;12.40;99.90;;;;;;5103229;28;20490;-76
2022/04/22 09:20:15;;;;;;;8.10;4.93;;;12.40;99.90;;;;;;5107501;28;20540;-77
2022/04/22 09:22:45;;;;;;;7.07;3.77;;;12.50;99.90;;;;;;5118926;27;20466;-77
2022/04/22 09:25:22;;;;;;;5.47;4.97;;;12.70;99.90;;;;;;5105444;28;20524;-77
2022/04/22 09:27:50;;;;;;;5.70;4.43;;;12.90;99.90;;;;;;5102975;28;20452;-76
2022/04/22 09:30:28;;;;;;;5.93;4.30;;;13.00;99.90;;;;;;5103159;28;20433;-77
2022/04/22 09:32:58;;;;;;;5.60;3.77;;;13.20;99.90;;;;;;5103585;27;21187;-78
2022/04/22 09:35:26;;;;;;;7.80;4.00;;;13.30;99.90;;;;;;5104882;28;20437;-79
2022/04/22 09:43:46;;;;;;;7.10;4.77;;;13.60;99.90;;;;;;5058638;28;20466;-79
2022/04/22 09:46:22;;;;;;;6.67;4.27;;;13.70;99.90;;;;;;5085849;28;20537;-77
2022/04/22 09:48:52;;;;;;;4.43;4.00;;;13.70;99.90;;;;;;5103182;27;20453;-79
2022/04/22 09:51:27;;;;;;;7.00;3.90;;;13.90;99.90;;;;;;5103125;28;20553;-78
2022/04/22 09:54:02;;;;;;;8.60;4.73;;;14.10;99.90;;;;;;5103734;28;20452;-77
2022/04/22 09:56:32;;;;;;;4.83;4.00;;;14.30;99.90;;;;;;5103667;28;20935;-77
2022/04/22 09:58:59;;;;;;;4.43;4.03;;;14.50;99.90;;;;;;5101474;28;20487;-77
2022/04/22 10:01:28;;;;;;;4.50;3.80;;;14.60;99.90;;;;;;5003031;28;20590;-72
2022/04/22 10:04:18;;;;;;;7.60;4.17;;;14.90;99.90;;;;;;5007898;27;20823;-72
2022/04/22 10:06:48;;;;;;;8.80;4.43;;;15.00;99.90;;;;;;5003205;28;20562;-71
2022/04/22 10:09:18;;;;;;;4.53;3.90;;;15.00;99.90;;;;;;5011314;28;20533;-72
2022/04/22 10:11:47;;;;;;;8.10;4.20;;;14.90;99.90;;;;;;5007472;28;20573;-74
2022/04/22 10:14:20;;;;;;;7.63;4.30;;;15.10;99.90;;;;;;5018566;27;20565;-72
2022/04/22 10:16:50;;;;;;;5.80;3.93;;;15.00;99.90;;;;;;5018108;28;20441;-74
2022/04/22 10:19:20;;;;;;;4.63;4.10;;;15.10;99.90;;;;;;5015303;28;20563;-72
2022/04/22 10:21:49;;;;;;;5.07;4.57;;;15.20;99.90;;;;;;5011823;28;20466;-71
2022/04/22 10:24:19;;;;;;;7.33;4.73;;;15.40;99.90;;;;;;4999947;28;20811;-72
2022/04/22 10:26:49;;;;;;;8.43;4.03;;;15.50;99.90;;;;;;5005025;28;20661;-72
2022/04/22 10:29:19;;;;;;;5.13;4.50;;;15.50;99.90;;;;;;5012186;28;21028;-72
2022/04/22 10:31:47;;;;;;;10.83;5.07;;;15.40;99.90;;;;;;5014875;28;20559;-72
2022/04/22 10:34:20;;;;;;;7.50;4.17;;;15.40;99.90;;;;;;5015094;28;20449;-72
2022/04/22 10:36:56;;;;;;;7.80;5.10;;;15.40;99.90;;;;;;5006433;28;21036;-72
2022/04/22 10:39:33;;;;;;;8.70;4.40;;;15.30;99.90;;;;;;5010879;28;20533;-73
2022/04/22 10:42:02;;;;;;;6.80;4.63;;;15.30;99.90;;;;;;5006988;27;20476;-72
2022/04/22 10:47:46;;;;;;;7.47;4.80;;;15.00;99.90;;;;;;4998337;28;20752;-72
2022/04/22 10:50:29;;;;;;;9.53;4.53;;;14.80;99.90;;;;;;5032980;28;20509;-71
2022/04/22 10:53:03;;;;;;;11.60;4.57;;;14.50;99.90;;;;;;5008538;28;20456;-72
2022/04/22 10:55:33;;;;;;;9.10;5.57;;;14.40;99.90;;;;;;5015900;28;20458;-72
2022/04/22 10:58:20;;;;;;;5.80;4.70;;;14.30;99.90;;;;;;5014021;28;20520;-72
2022/04/22 11:00:49;;;;;;;5.97;4.70;;;14.40;99.90;;;;;;5004078;28;20559;-73
2022/04/22 11:03:19;;;;;;;7.07;4.17;;;14.50;99.90;;;;;;5001945;28;20505;-73
2022/04/22 11:05:50;;;;;;;11.00;5.67;;;14.60;99.90;;;;;;5001574;28;20447;-72
2022/04/22 11:08:30;;;;;;;9.17;4.20;;;14.70;99.90;;;;;;5002109;28;20865;-72
2022/04/22 11:11:19;;;;;;;8.77;5.10;;;14.80;99.90;;;;;;4993282;28;20894;-71
2022/04/22 11:13:50;;;;;;;5.73;4.13;;;14.90;99.90;;;;;;4997066;27;20522;-72
2022/04/22 11:16:29;;;;;;;10.67;5.27;;;14.90;99.90;;;;;;5007132;28;20463;-72
2022/04/22 11:19:13;;;;;;;7.90;4.67;;;14.80;99.90;;;;;;5006377;27;20474;-71
2022/04/22 11:21:43;;;;;;;8.27;5.27;;;14.80;99.90;;;;;;5007489;28;20546;-72
2022/04/22 11:24:15;;;;;;;5.67;5.07;;;14.60;99.90;;;;;;5008116;28;20449;-71
2022/04/22 11:26:45;;;;;;;5.97;4.90;;;14.60;99.90;;;;;;5021973;28;20541;-70
2022/04/22 11:29:14;;;;;;;16.47;6.07;;;14.40;99.90;;;;;;5020566;28;20872;-71
2022/04/22 11:31:50;;;;;;;8.43;5.50;;;14.40;99.90;;;;;;5019356;28;20458;-70
2022/04/22 11:34:24;;;;;;;7.63;4.90;;;14.40;99.90;;;;;;5019745;28;20468;-70
2022/04/22 11:36:53;;;;;;;7.40;5.13;;;14.40;99.90;;;;;;5020326;28;20433;-70
2022/04/22 11:39:23;;;;;;;6.60;4.43;;;14.50;99.90;;;;;;5019792;27;20733;-70
2022/04/22 11:41:53;;;;;;;6.87;5.43;;;14.60;99.90;;;;;;5014575;28;20561;-72
2022/04/22 11:44:21;;;;;;;8.00;4.87;;;14.80;99.90;;;;;;5012382;28;20454;-70
2022/04/22 11:46:50;;;;;;;6.50;4.47;;;14.90;99.90;;;;;;5004595;28;20825;-70
2022/04/22 11:49:19;;;;;;;8.30;4.30;;;15.10;99.90;;;;;;4998893;27;20466;-71
2022/04/22 11:51:46;;;;;;;7.73;4.60;;;15.20;99.90;;;;;;5013562;28;20465;-71
2022/04/22 11:54:23;;;;;;;5.63;4.10;;;15.30;99.90;;;;;;5014920;28;20452;-72
2022/04/22 11:56:51;;;;;;;7.33;4.20;;;15.30;99.90;;;;;;5004838;28;20548;-69
2022/04/22 11:59:19;;;;;;;8.97;4.80;;;15.40;99.90;;;;;;4989172;28;20473;-72
2022/04/22 12:10:06;;;;;;;9.10;6.00;;;15.30;99.90;;;;;;5006420;28;20462;-71
2022/04/22 12:12:34;;;;;;;8.07;4.97;;;15.20;99.90;;;;;;4992976;28;21009;-73
2022/04/22 12:15:05;;;;;;;10.20;4.30;;;15.10;99.90;;;;;;4992592;28;20911;-71
2022/04/22 12:17:33;;;;;;;7.70;4.63;;;15.00;99.90;;;;;;4992010;28;20472;-71
2022/04/22 12:20:02;;;;;;;14.67;6.23;;;15.10;99.90;;;;;;4993923;28;20742;-72
2022/04/22 12:22:33;;;;;;;8.30;5.53;;;15.20;99.90;;;;;;4990512;28;20757;-72
2022/04/22 12:25:10;;;;;;;10.03;5.70;;;15.10;99.90;;;;;;4990249;28;20709;-70
2022/04/22 12:27:39;;;;;;;6.90;5.80;;;15.00;99.90;;;;;;4989107;28;20514;-71
2022/04/22 12:30:09;;;;;;;7.90;5.97;;;15.00;99.90;;;;;;4991005;28;21051;-71
2022/04/22 12:32:38;;;;;;;12.30;6.13;;;15.00;99.90;;;;;;4990855;27;20470;-70
2022/04/22 12:35:15;;;;;;;5.30;4.80;;;15.10;99.90;;;;;;4992662;28;20451;-73
2022/04/22 12:37:52;;;;;;;8.13;6.27;;;15.20;99.90;;;;;;4992374;28;20902;-71
2022/04/22 12:40:22;;;;;;;12.40;5.50;;;15.30;99.90;;;;;;4998473;28;20542;-71
2022/04/22 12:42:54;;;;;;;7.23;5.80;;;15.40;99.90;;;;;;5000527;27;20478;-72
2022/04/22 12:53:43;;;;;;;7.43;5.87;;;15.20;99.90;;;;;;4986113;28;20466;-66
2022/04/22 12:56:13;;;;;;;7.33;5.07;;;15.20;99.90;;;;;;4979277;28;20530;-68
2022/04/22 12:58:52;;;;;;;8.00;5.50;;;15.20;99.90;;;;;;4998418;28;20443;-67
2022/04/22 13:01:26;;;;;;;8.30;4.90;;;15.20;99.90;;;;;;5001030;28;20902;-67
2022/04/22 13:03:54;;;;;;;6.10;4.60;;;15.30;99.90;;;;;;5001331;28;20458;-68
2022/04/22 13:06:38;;;;;;;7.73;5.70;;;15.40;99.90;;;;;;5000814;28;20431;-68
2022/04/22 13:09:08;;;;;;;7.83;4.90;;;15.50;99.90;;;;;;5012235;28;20446;-69
2022/04/22 13:11:37;;;;;;;8.47;5.43;;;15.60;99.90;;;;;;5018760;27;21036;-67
2022/04/22 13:14:06;;;;;;;11.07;5.70;;;15.50;99.90;;;;;;5013405;28;20790;-67
2022/04/22 13:16:35;;;;;;;6.60;4.90;;;15.30;99.90;;;;;;4998888;28;20863;-66
2022/04/22 13:19:11;;;;;;;6.90;5.47;;;15.30;99.90;;;;;;5013795;28;20776;-67
2022/04/22 13:21:40;;;;;;;11.50;5.80;;;15.30;99.90;;;;;;5003011;28;20531;-67
2022/04/22 13:24:12;;;;;;;7.40;5.20;;;15.30;99.90;;;;;;4997240;28;20442;-68
2022/04/22 13:26:41;;;;;;;7.00;4.93;;;15.30;99.90;;;;;;4996303;28;20482;-66
2022/04/22 13:29:09;;;;;;;8.07;5.37;;;15.20;99.90;;;;;;4997730;27;20461;-66
2022/04/22 13:31:37;;;;;;;8.80;5.17;;;15.40;99.90;;;;;;4998330;28;20724;-67
2022/04/22 13:34:05;;;;;;;7.77;5.23;;;15.40;99.90;;;;;;5013683;28;20449;-66
2022/04/22 13:36:35;;;;;;;5.47;4.97;;;15.40;99.90;;;;;;5005632;28;20518;-66
2022/04/22 13:39:03;;;;;;;7.23;5.20;;;15.60;99.90;;;;;;4998738;27;20489;-67
2022/04/22 13:41:31;;;;;;;7.27;4.90;;;15.80;99.90;;;;;;4999002;28;20508;-66
2022/04/22 13:44:00;;;;;;;6.07;4.90;;;16.10;99.90;;;;;;4999661;28;21018;-66
2022/04/22 13:54:41;;;;;;;5.20;3.83;;;16.60;99.90;;;;;;4996741;28;20915;-68
2022/04/22 13:57:09;;;;;;;8.13;4.43;;;16.70;99.90;;;;;;4997405;28;20530;-66
2022/04/22 13:59:38;;;;;;;6.73;4.53;;;16.80;99.90;;;;;;5010744;28;20839;-67
2022/04/22 14:02:07;;;;;;;5.50;4.70;;;16.80;99.90;;;;;;5014293;27;20556;-69
2022/04/22 14:04:37;;;;;;;5.03;4.50;;;16.70;99.90;;;;;;4988917;28;20661;-66
2022/04/22 14:07:06;;;;;;;5.60;4.53;;;16.80;99.90;;;;;;5002323;28;20441;-66
2022/04/22 14:09:35;;;;;;;7.33;5.40;;;16.90;99.90;;;;;;5002521;28;20438;-66
2022/04/22 14:12:03;;;;;;;8.00;5.10;;;17.00;99.90;;;;;;5010479;28;20717;-67
2022/04/22 14:14:32;;;;;;;10.13;6.17;;;17.10;99.90;;;;;;5010799;28;20449;-68
2022/04/22 14:17:01;;;;;;;6.87;5.10;;;17.10;99.90;;;;;;5020728;27;20664;-69
2022/04/22 14:19:32;;;;;;;12.30;5.07;;;17.00;99.90;;;;;;5020617;28;20996;-69